KHYA/HYA METAR and TAF weather

Enter ICAO airport designator
Station Type Date Time Source
KHYA METAR 2022/07/03 13:56 UTC NOAA

KHYA 031356Z 35005KT 10SM SCT080 SCT090 28/13 A2996 RMK AO2 SLP147 T02780128 $


Station Type Date Time Source
KHYA Decoded METAR 2022/07/03 13:56 UTC NOAA

HYANNIS BARNSTABLE BOARDMN, MA, United States (KHYA) 41-40N 070-16W 22M
Jul 03, 2022 - 09:56 AM EDT / 2022.07.03 1356 UTC
Wind: from the N (350 degrees) at 6 MPH (5 KT):0
Visibility: 10 mile(s):0
Sky conditions: partly cloudy
Temperature: 82.0 F (27.8 C)
Dew Point: 55.0 F (12.8 C)
Relative Humidity: 39%
Pressure (altimeter): 29.96 in. Hg (1014 hPa)
ob: KHYA 031356Z 35005KT 10SM SCT080 SCT090 28/13 A2996 RMK AO2 SLP147 T02780128
cycle: 14

Station Type Date Time Source
KHYA TAF 2022/07/03 12:22 UTC NOAA

TAF KHYA 031120Z 0312/0412 26005KT P6SM OVC070
FM031400 25006KT P6SM BKN040
FM031700 23007KT P6SM OVC060
FM040300 27005KT P6SM SKC
FM040600 36007KT P6SM SKC

Example: see airport list